Flight Track Log - Related Links

Times and Time Zones

All times are in EDT time to prevent confusion due to time zone crossing. See the EJA122 flight status page for this flight to view local times or setup timezone preferences in your user account.

Time Position Orientation Groundspeed Altitude Reporting Facility
EDT Latitude Longitude Course Direction KTS MPH feet Rate Location/Type
Wed 11:29:29 AM 41.5581 -81.4989 182° South 148 170 1,500  Level Cleveland Center
Wed 11:30:23 AM 41.5164 -81.5011 182° South 201 231 3,100 1,878 Climbing Cleveland Center
Wed 11:31:24 AM 41.4606 -81.4558 149° Southeast 250 288 5,100 1,373 Climbing Cleveland Center
Wed 11:32:21 AM 41.4067 -81.4081 146° Southeast 263 303 5,800 1,487 Climbing Cleveland Center
Wed 11:33:21 AM 41.3278 -81.3572 154° Southeast 292 336 8,000 1,650 Climbing Cleveland Center
Wed 11:34:21 AM 41.2489 -81.2983 151° Southeast 311 358 9,100 550 Climbing Cleveland Center
Wed 11:35:21 AM 41.1933 -81.2067 129° Southeast 316 364 9,100  Level Cleveland Center
Wed 11:36:21 AM 41.1394 -81.1069 126° Southeast 321 369 9,100  Level Cleveland Center
Wed 11:37:21 AM 41.0817 -81.0044 127° Southeast 334 384 9,100  Level Cleveland Center
Wed 11:38:21 AM 41.0256 -80.9050 127° Southeast 346 398 9,100 -50 Level Cleveland Center
Wed 11:39:21 AM 40.9694 -80.8058 127° Southeast 346 398 9,000 -50 Descending Cleveland Center
Wed 11:40:21 AM 40.9133 -80.7094 128° Southeast 341 392 9,000  Level Cleveland Center
Wed 11:41:21 AM 40.8467 -80.6269 137° Southeast 336 387 9,000 -100 Level Cleveland Center
Wed 11:42:21 AM 40.7800 -80.5475 138° Southeast 331 381 8,800 -850 Descending Cleveland Center
Wed 11:43:21 AM 40.7133 -80.4681 138° Southeast 331 381 7,300 -1,400 Descending Cleveland Center
Wed 11:44:21 AM 40.6506 -80.3889 136° Southeast 319 367 6,000 -650 Descending Cleveland Center
Wed 11:45:21 AM 40.5775 -80.3042 139° Southeast 319 367 6,000 -300 Level Cleveland Center
Wed 11:46:21 AM 40.5397 -80.2089 118° Southeast 307 353 5,400 -1,200 Descending Cleveland Center
Wed 11:47:21 AM 40.5061 -80.1244 118° Southeast 296 341 3,600 -1,200 Descending Cleveland Center
Wed 11:48:21 AM 40.4561 -80.1056 164° South 249 287 3,000 -600 Descending Cleveland Center
Wed 11:50:00 AM 40.4833 -80.2167 291° West  Level FlightAware Approximate
Wed 11:57:00 AM 40.4915 -80.2329 291° West  Level Estimated

Login

Don't have an account? Register now (free) for customized features, flight alerts, and more!